sensor_id;sensor_type;location;lat;lon;timestamp;pressure;altitude;pressure_sealevel;temperature;humidity
74790;BME280;63318;52.406;13.416;2023-08-12T00:00:02;101617.68;;;17.37;71.46
74790;BME280;63318;52.406;13.416;2023-08-12T00:02:31;101612.40;;;17.31;71.53
74790;BME280;63318;52.406;13.416;2023-08-12T00:04:59;101618.36;;;17.27;71.55
74790;BME280;63318;52.406;13.416;2023-08-12T00:07:27;101618.35;;;17.22;71.90
74790;BME280;63318;52.406;13.416;2023-08-12T00:09:55;101620.98;;;17.18;72.10
74790;BME280;63318;52.406;13.416;2023-08-12T00:12:24;101623.34;;;17.13;72.17
74790;BME280;63318;52.406;13.416;2023-08-12T00:14:52;101625.00;;;17.09;72.12
74790;BME280;63318;52.406;13.416;2023-08-12T00:17:20;101622.52;;;17.04;72.25
74790;BME280;63318;52.406;13.416;2023-08-12T00:19:48;101621.33;;;17.00;72.39
74790;BME280;63318;52.406;13.416;2023-08-12T00:22:17;101618.23;;;16.95;72.53
74790;BME280;63318;52.406;13.416;2023-08-12T00:24:45;101615.45;;;16.92;72.51
74790;BME280;63318;52.406;13.416;2023-08-12T00:27:13;101617.02;;;16.87;72.74
74790;BME280;63318;52.406;13.416;2023-08-12T00:29:41;101617.95;;;16.83;72.89
74790;BME280;63318;52.406;13.416;2023-08-12T00:32:10;101619.16;;;16.80;72.94
74790;BME280;63318;52.406;13.416;2023-08-12T00:34:39;101615.77;;;16.77;73.29
74790;BME280;63318;52.406;13.416;2023-08-12T00:37:07;101615.91;;;16.73;73.52
74790;BME280;63318;52.406;13.416;2023-08-12T00:39:35;101606.68;;;16.69;73.25
74790;BME280;63318;52.406;13.416;2023-08-12T00:42:04;101604.70;;;16.66;73.26
74790;BME280;63318;52.406;13.416;2023-08-12T00:44:32;101601.08;;;16.63;73.60
74790;BME280;63318;52.406;13.416;2023-08-12T00:47:00;101604.90;;;16.61;73.72
74790;BME280;63318;52.406;13.416;2023-08-12T00:49:29;101601.79;;;16.59;73.89
74790;BME280;63318;52.406;13.416;2023-08-12T00:51:59;101597.05;;;16.55;73.94
74790;BME280;63318;52.406;13.416;2023-08-12T00:54:28;101592.90;;;16.53;74.25
74790;BME280;63318;52.406;13.416;2023-08-12T00:56:56;101589.10;;;16.51;74.22
74790;BME280;63318;52.406;13.416;2023-08-12T00:59:25;101586.84;;;16.49;74.41
74790;BME280;63318;52.406;13.416;2023-08-12T01:01:54;101582.70;;;16.47;74.51
74790;BME280;63318;52.406;13.416;2023-08-12T01:04:22;101576.23;;;16.45;74.52
74790;BME280;63318;52.406;13.416;2023-08-12T01:06:50;101573.33;;;16.43;74.51
74790;BME280;63318;52.406;13.416;2023-08-12T01:09:19;101571.88;;;16.42;74.55
74790;BME280;63318;52.406;13.416;2023-08-12T01:11:53;101572.00;;;16.41;74.56
74790;BME280;63318;52.406;13.416;2023-08-12T01:14:25;101569.70;;;16.39;74.78
74790;BME280;63318;52.406;13.416;2023-08-12T01:16:58;101565.12;;;16.37;74.69
74790;BME280;63318;52.406;13.416;2023-08-12T01:19:32;101560.83;;;16.36;74.76
74790;BME280;63318;52.406;13.416;2023-08-12T01:22:02;101560.45;;;16.35;74.91
74790;BME280;63318;52.406;13.416;2023-08-12T01:24:35;101563.25;;;16.33;74.76
74790;BME280;63318;52.406;13.416;2023-08-12T01:27:03;101562.94;;;16.31;74.85
74790;BME280;63318;52.406;13.416;2023-08-12T01:29:32;101560.37;;;16.28;74.96
74790;BME280;63318;52.406;13.416;2023-08-12T01:32:07;101562.46;;;16.26;74.97
74790;BME280;63318;52.406;13.416;2023-08-12T01:34:42;101557.89;;;16.24;75.11
74790;BME280;63318;52.406;13.416;2023-08-12T01:37:14;101554.70;;;16.21;75.04
74790;BME280;63318;52.406;13.416;2023-08-12T01:39:46;101552.27;;;16.18;75.12
74790;BME280;63318;52.406;13.416;2023-08-12T01:42:15;101552.96;;;16.15;75.21
74790;BME280;63318;52.406;13.416;2023-08-12T01:44:44;101548.23;;;16.12;75.27
74790;BME280;63318;52.406;13.416;2023-08-12T01:47:13;101551.31;;;16.11;75.34
74790;BME280;63318;52.406;13.416;2023-08-12T01:49:41;101544.32;;;16.07;75.31
74790;BME280;63318;52.406;13.416;2023-08-12T01:52:10;101546.58;;;16.05;75.33
74790;BME280;63318;52.406;13.416;2023-08-12T01:54:38;101540.66;;;16.03;75.40
74790;BME280;63318;52.406;13.416;2023-08-12T01:57:06;101537.15;;;15.99;75.67
74790;BME280;63318;52.406;13.416;2023-08-12T01:59:34;101534.24;;;15.97;75.51
74790;BME280;63318;52.406;13.416;2023-08-12T02:02:03;101534.05;;;15.94;75.57
74790;BME280;63318;52.406;13.416;2023-08-12T02:04:32;101533.34;;;15.91;75.72
74790;BME280;63318;52.406;13.416;2023-08-12T02:07:00;101531.40;;;15.88;75.87
74790;BME280;63318;52.406;13.416;2023-08-12T02:09:28;101527.38;;;15.86;75.94
74790;BME280;63318;52.406;13.416;2023-08-12T02:11:57;101522.34;;;15.84;75.97
74790;BME280;63318;52.406;13.416;2023-08-12T02:14:25;101523.48;;;15.82;75.98
74790;BME280;63318;52.406;13.416;2023-08-12T02:16:53;101514.30;;;15.80;76.12
74790;BME280;63318;52.406;13.416;2023-08-12T02:19:22;101508.64;;;15.79;76.14
74790;BME280;63318;52.406;13.416;2023-08-12T02:21:50;101507.59;;;15.78;76.13
74790;BME280;63318;52.406;13.416;2023-08-12T02:24:18;101507.15;;;15.78;76.30
74790;BME280;63318;52.406;13.416;2023-08-12T02:26:46;101510.84;;;15.78;76.41
74790;BME280;63318;52.406;13.416;2023-08-12T02:29:14;101507.43;;;15.77;76.43
74790;BME280;63318;52.406;13.416;2023-08-12T02:31:43;101503.67;;;15.77;76.50
74790;BME280;63318;52.406;13.416;2023-08-12T02:34:11;101497.06;;;15.76;76.49
74790;BME280;63318;52.406;13.416;2023-08-12T02:36:39;101492.85;;;15.77;76.53
74790;BME280;63318;52.406;13.416;2023-08-12T02:39:07;101490.23;;;15.77;76.56
74790;BME280;63318;52.406;13.416;2023-08-12T02:41:35;101489.70;;;15.78;76.57
74790;BME280;63318;52.406;13.416;2023-08-12T02:44:04;101488.02;;;15.78;76.67
74790;BME280;63318;52.406;13.416;2023-08-12T02:46:32;101486.41;;;15.78;76.54
74790;BME280;63318;52.406;13.416;2023-08-12T02:49:00;101489.66;;;15.79;76.63
74790;BME280;63318;52.406;13.416;2023-08-12T02:51:28;101485.83;;;15.80;76.70
74790;BME280;63318;52.406;13.416;2023-08-12T02:53:57;101484.15;;;15.80;76.82
74790;BME280;63318;52.406;13.416;2023-08-12T02:56:25;101482.18;;;15.80;76.90
74790;BME280;63318;52.406;13.416;2023-08-12T02:58:53;101479.45;;;15.80;76.97
74790;BME280;63318;52.406;13.416;2023-08-12T03:01:21;101477.42;;;15.81;76.87
74790;BME280;63318;52.406;13.416;2023-08-12T03:03:50;101474.29;;;15.80;76.92
74790;BME280;63318;52.406;13.416;2023-08-12T03:06:18;101475.17;;;15.80;76.72
74790;BME280;63318;52.406;13.416;2023-08-12T03:08:46;101474.40;;;15.81;76.83
74790;BME280;63318;52.406;13.416;2023-08-12T03:11:14;101475.35;;;15.81;76.95
74790;BME280;63318;52.406;13.416;2023-08-12T03:13:42;101476.19;;;15.80;77.08
74790;BME280;63318;52.406;13.416;2023-08-12T03:16:14;101473.84;;;15.80;77.12
74790;BME280;63318;52.406;13.416;2023-08-12T03:18:42;101472.79;;;15.78;77.20
74790;BME280;63318;52.406;13.416;2023-08-12T03:21:10;101467.23;;;15.77;77.23
74790;BME280;63318;52.406;13.416;2023-08-12T03:23:39;101466.02;;;15.76;77.09
74790;BME280;63318;52.406;13.416;2023-08-12T03:26:07;101465.48;;;15.75;77.04
74790;BME280;63318;52.406;13.416;2023-08-12T03:28:36;101461.73;;;15.74;77.22
74790;BME280;63318;52.406;13.416;2023-08-12T03:31:04;101463.25;;;15.73;77.18
74790;BME280;63318;52.406;13.416;2023-08-12T03:33:32;101461.47;;;15.71;77.16
74790;BME280;63318;52.406;13.416;2023-08-12T03:36:01;101458.34;;;15.71;77.22
74790;BME280;63318;52.406;13.416;2023-08-12T03:38:29;101457.33;;;15.70;77.25
74790;BME280;63318;52.406;13.416;2023-08-12T03:40:57;101451.46;;;15.68;77.21
74790;BME280;63318;52.406;13.416;2023-08-12T03:43:25;101450.58;;;15.68;77.18
74790;BME280;63318;52.406;13.416;2023-08-12T03:45:54;101447.10;;;15.68;77.17
74790;BME280;63318;52.406;13.416;2023-08-12T03:48:22;101449.17;;;15.67;77.13
74790;BME280;63318;52.406;13.416;2023-08-12T03:50:50;101448.77;;;15.67;77.05
74790;BME280;63318;52.406;13.416;2023-08-12T03:53:18;101443.69;;;15.67;77.22
74790;BME280;63318;52.406;13.416;2023-08-12T03:55:46;101444.58;;;15.67;77.36
74790;BME280;63318;52.406;13.416;2023-08-12T03:58:15;101437.52;;;15.67;77.34
74790;BME280;63318;52.406;13.416;2023-08-12T04:00:43;101441.22;;;15.67;77.12
74790;BME280;63318;52.406;13.416;2023-08-12T04:03:11;101435.27;;;15.67;77.09
74790;BME280;63318;52.406;13.416;2023-08-12T04:05:48;101435.83;;;15.68;77.03
74790;BME280;63318;52.406;13.416;2023-08-12T04:08:16;101432.41;;;15.68;76.96
74790;BME280;63318;52.406;13.416;2023-08-12T04:10:47;101430.11;;;15.69;76.96
74790;BME280;63318;52.406;13.416;2023-08-12T04:13:16;101428.74;;;15.71;76.89
74790;BME280;63318;52.406;13.416;2023-08-12T04:15:47;101427.29;;;15.71;77.02
74790;BME280;63318;52.406;13.416;2023-08-12T04:18:16;101420.79;;;15.72;76.91
74790;BME280;63318;52.406;13.416;2023-08-12T04:20:46;101422.95;;;15.73;76.90
74790;BME280;63318;52.406;13.416;2023-08-12T04:23:14;101423.80;;;15.74;76.93
74790;BME280;63318;52.406;13.416;2023-08-12T04:25:44;101420.48;;;15.75;76.92
74790;BME280;63318;52.406;13.416;2023-08-12T04:28:12;101426.40;;;15.76;76.80
74790;BME280;63318;52.406;13.416;2023-08-12T04:30:43;101426.34;;;15.77;77.02
74790;BME280;63318;52.406;13.416;2023-08-12T04:33:11;101427.63;;;15.78;77.05
74790;BME280;63318;52.406;13.416;2023-08-12T04:35:40;101425.84;;;15.79;77.17
74790;BME280;63318;52.406;13.416;2023-08-12T04:38:08;101431.59;;;15.80;76.98
74790;BME280;63318;52.406;13.416;2023-08-12T04:40:39;101426.83;;;15.82;77.10
74790;BME280;63318;52.406;13.416;2023-08-12T04:43:08;101425.73;;;15.83;76.99
74790;BME280;63318;52.406;13.416;2023-08-12T04:45:37;101424.04;;;15.85;77.01
74790;BME280;63318;52.406;13.416;2023-08-12T04:48:06;101425.93;;;15.87;77.00
74790;BME280;63318;52.406;13.416;2023-08-12T04:50:34;101424.73;;;15.90;76.92
74790;BME280;63318;52.406;13.416;2023-08-12T04:53:03;101431.08;;;15.94;76.95
74790;BME280;63318;52.406;13.416;2023-08-12T04:55:31;101435.20;;;15.98;76.98
74790;BME280;63318;52.406;13.416;2023-08-12T04:57:59;101427.09;;;16.03;76.77
74790;BME280;63318;52.406;13.416;2023-08-12T05:00:28;101427.82;;;16.08;76.79
74790;BME280;63318;52.406;13.416;2023-08-12T05:02:56;101426.92;;;16.14;76.82
74790;BME280;63318;52.406;13.416;2023-08-12T05:05:25;101424.25;;;16.19;76.79
74790;BME280;63318;52.406;13.416;2023-08-12T05:07:53;101423.84;;;16.26;76.84
74790;BME280;63318;52.406;13.416;2023-08-12T05:10:21;101418.27;;;16.33;76.77
74790;BME280;63318;52.406;13.416;2023-08-12T05:12:49;101415.77;;;16.41;76.78
74790;BME280;63318;52.406;13.416;2023-08-12T05:15:18;101415.41;;;16.49;76.69
74790;BME280;63318;52.406;13.416;2023-08-12T05:17:46;101411.96;;;16.59;76.61
74790;BME280;63318;52.406;13.416;2023-08-12T05:20:14;101409.21;;;16.69;76.53
74790;BME280;63318;52.406;13.416;2023-08-12T05:22:42;101411.09;;;16.81;76.41
74790;BME280;63318;52.406;13.416;2023-08-12T05:25:11;101415.24;;;16.93;76.42
74790;BME280;63318;52.406;13.416;2023-08-12T05:27:39;101418.17;;;17.07;76.13
74790;BME280;63318;52.406;13.416;2023-08-12T05:30:09;101413.65;;;17.21;75.98
74790;BME280;63318;52.406;13.416;2023-08-12T05:32:37;101407.19;;;17.36;75.73
74790;BME280;63318;52.406;13.416;2023-08-12T05:35:06;101403.42;;;17.53;75.36
74790;BME280;63318;52.406;13.416;2023-08-12T05:37:35;101396.35;;;17.70;75.05
74790;BME280;63318;52.406;13.416;2023-08-12T05:40:04;101389.54;;;17.88;74.60
74790;BME280;63318;52.406;13.416;2023-08-12T05:42:32;101385.27;;;18.06;74.57
74790;BME280;63318;52.406;13.416;2023-08-12T05:45:00;101388.51;;;18.26;74.28
74790;BME280;63318;52.406;13.416;2023-08-12T05:47:28;101391.37;;;18.45;73.75
74790;BME280;63318;52.406;13.416;2023-08-12T05:49:57;101394.11;;;18.63;73.45
74790;BME280;63318;52.406;13.416;2023-08-12T05:52:25;101393.52;;;18.78;73.11
74790;BME280;63318;52.406;13.416;2023-08-12T05:54:53;101390.93;;;18.92;72.92
74790;BME280;63318;52.406;13.416;2023-08-12T05:57:21;101389.05;;;19.03;72.66
74790;BME280;63318;52.406;13.416;2023-08-12T05:59:50;101385.98;;;19.14;72.26
74790;BME280;63318;52.406;13.416;2023-08-12T06:02:18;101383.33;;;19.24;72.03
74790;BME280;63318;52.406;13.416;2023-08-12T06:04:46;101385.95;;;19.33;71.82
74790;BME280;63318;52.406;13.416;2023-08-12T06:07:15;101387.84;;;19.43;71.47
74790;BME280;63318;52.406;13.416;2023-08-12T06:09:43;101389.39;;;19.51;71.20
74790;BME280;63318;52.406;13.416;2023-08-12T06:12:11;101395.83;;;19.60;70.98
74790;BME280;63318;52.406;13.416;2023-08-12T06:14:39;101392.35;;;19.68;70.78
74790;BME280;63318;52.406;13.416;2023-08-12T06:17:07;101392.14;;;19.76;70.47
74790;BME280;63318;52.406;13.416;2023-08-12T06:19:36;101391.36;;;19.85;70.29
74790;BME280;63318;52.406;13.416;2023-08-12T06:22:04;101387.16;;;19.97;70.16
74790;BME280;63318;52.406;13.416;2023-08-12T06:24:32;101383.52;;;20.09;69.96
74790;BME280;63318;52.406;13.416;2023-08-12T06:27:01;101385.31;;;20.21;69.61
74790;BME280;63318;52.406;13.416;2023-08-12T06:29:29;101387.26;;;20.35;69.52
74790;BME280;63318;52.406;13.416;2023-08-12T06:31:57;101390.21;;;20.53;69.43
74790;BME280;63318;52.406;13.416;2023-08-12T06:34:25;101391.45;;;20.70;69.59
74790;BME280;63318;52.406;13.416;2023-08-12T06:36:53;101395.55;;;20.86;68.91
74790;BME280;63318;52.406;13.416;2023-08-12T06:39:21;101400.54;;;20.97;68.59
74790;BME280;63318;52.406;13.416;2023-08-12T06:41:50;101396.14;;;21.05;67.87
74790;BME280;63318;52.406;13.416;2023-08-12T06:44:18;101393.63;;;21.13;67.77
74790;BME280;63318;52.406;13.416;2023-08-12T06:46:46;101390.80;;;21.21;67.82
74790;BME280;63318;52.406;13.416;2023-08-12T06:49:14;101390.11;;;21.30;67.43
74790;BME280;63318;52.406;13.416;2023-08-12T06:51:43;101384.10;;;21.41;67.29
74790;BME280;63318;52.406;13.416;2023-08-12T06:54:11;101382.80;;;21.52;67.07
74790;BME280;63318;52.406;13.416;2023-08-12T06:56:39;101379.55;;;21.62;67.01
74790;BME280;63318;52.406;13.416;2023-08-12T06:59:07;101377.46;;;21.69;66.53
74790;BME280;63318;52.406;13.416;2023-08-12T07:01:35;101379.48;;;21.74;66.34
74790;BME280;63318;52.406;13.416;2023-08-12T07:04:04;101381.45;;;21.78;66.12
74790;BME280;63318;52.406;13.416;2023-08-12T07:06:33;101378.14;;;21.81;66.14
74790;BME280;63318;52.406;13.416;2023-08-12T07:09:01;101373.81;;;21.85;66.02
74790;BME280;63318;52.406;13.416;2023-08-12T07:11:29;101367.81;;;21.90;65.72
74790;BME280;63318;52.406;13.416;2023-08-12T07:13:57;101366.75;;;21.95;65.50
74790;BME280;63318;52.406;13.416;2023-08-12T07:16:26;101363.24;;;22.01;65.37
74790;BME280;63318;52.406;13.416;2023-08-12T07:18:54;101358.17;;;22.18;65.43
74790;BME280;63318;52.406;13.416;2023-08-12T07:21:23;101358.09;;;22.38;65.29
74790;BME280;63318;52.406;13.416;2023-08-12T07:23:51;101358.92;;;22.63;64.77
74790;BME280;63318;52.406;13.416;2023-08-12T07:26:19;101359.34;;;22.84;64.55
74790;BME280;63318;52.406;13.416;2023-08-12T07:28:48;101358.70;;;23.01;63.84
74790;BME280;63318;52.406;13.416;2023-08-12T07:31:16;101358.65;;;23.20;63.21
74790;BME280;63318;52.406;13.416;2023-08-12T07:33:45;101357.95;;;23.38;62.94
74790;BME280;63318;52.406;13.416;2023-08-12T07:36:13;101356.23;;;23.54;62.83
74790;BME280;63318;52.406;13.416;2023-08-12T07:38:41;101351.58;;;23.68;62.46
74790;BME280;63318;52.406;13.416;2023-08-12T07:41:10;101352.04;;;23.80;61.99
74790;BME280;63318;52.406;13.416;2023-08-12T07:43:38;101351.61;;;23.86;61.98
74790;BME280;63318;52.406;13.416;2023-08-12T07:46:06;101352.02;;;23.89;61.26
74790;BME280;63318;52.406;13.416;2023-08-12T07:48:34;101357.13;;;23.90;61.48
74790;BME280;63318;52.406;13.416;2023-08-12T07:51:02;101352.57;;;23.94;61.37
74790;BME280;63318;52.406;13.416;2023-08-12T07:53:31;101348.88;;;24.00;61.81
74790;BME280;63318;52.406;13.416;2023-08-12T07:55:59;101342.15;;;24.06;61.42
74790;BME280;63318;52.406;13.416;2023-08-12T07:58:27;101342.64;;;24.14;61.64
74790;BME280;63318;52.406;13.416;2023-08-12T08:00:55;101342.63;;;24.24;61.39
74790;BME280;63318;52.406;13.416;2023-08-12T08:03:25;101344.83;;;24.35;61.07
74790;BME280;63318;52.406;13.416;2023-08-12T08:05:53;101341.89;;;24.46;60.81
74790;BME280;63318;52.406;13.416;2023-08-12T08:08:23;101340.91;;;24.58;60.58
74790;BME280;63318;52.406;13.416;2023-08-12T08:10:51;101342.92;;;24.73;60.23
74790;BME280;63318;52.406;13.416;2023-08-12T08:13:19;101342.77;;;24.93;60.09
74790;BME280;63318;52.406;13.416;2023-08-12T08:15:48;101342.11;;;25.10;59.37
74790;BME280;63318;52.406;13.416;2023-08-12T08:18:16;101343.27;;;25.20;59.14
74790;BME280;63318;52.406;13.416;2023-08-12T08:20:44;101344.67;;;25.29;58.81
74790;BME280;63318;52.406;13.416;2023-08-12T08:23:13;101341.45;;;25.33;58.58
74790;BME280;63318;52.406;13.416;2023-08-12T08:25:41;101345.20;;;25.38;57.97
74790;BME280;63318;52.406;13.416;2023-08-12T08:28:09;101340.80;;;25.43;58.44
74790;BME280;63318;52.406;13.416;2023-08-12T08:30:37;101345.71;;;25.43;58.04
74790;BME280;63318;52.406;13.416;2023-08-12T08:33:06;101346.48;;;25.43;57.85
74790;BME280;63318;52.406;13.416;2023-08-12T08:35:34;101346.11;;;25.41;58.19
74790;BME280;63318;52.406;13.416;2023-08-12T08:38:02;101342.02;;;25.37;58.37
74790;BME280;63318;52.406;13.416;2023-08-12T08:40:31;101345.24;;;25.34;57.93
74790;BME280;63318;52.406;13.416;2023-08-12T08:43:02;101345.52;;;25.27;58.33
74790;BME280;63318;52.406;13.416;2023-08-12T08:45:33;101340.73;;;25.20;58.76
74790;BME280;63318;52.406;13.416;2023-08-12T08:48:01;101339.11;;;25.12;59.22
74790;BME280;63318;52.406;13.416;2023-08-12T08:50:30;101340.21;;;25.04;58.98
74790;BME280;63318;52.406;13.416;2023-08-12T08:53:01;101341.42;;;24.96;59.02
74790;BME280;63318;52.406;13.416;2023-08-12T08:55:30;101338.73;;;24.89;59.43
74790;BME280;63318;52.406;13.416;2023-08-12T08:57:58;101342.23;;;24.84;59.74
74790;BME280;63318;52.406;13.416;2023-08-12T09:00:28;101346.91;;;24.80;60.12
74790;BME280;63318;52.406;13.416;2023-08-12T09:02:58;101343.81;;;24.80;60.78
74790;BME280;63318;52.406;13.416;2023-08-12T09:05:27;101349.34;;;24.80;60.78
74790;BME280;63318;52.406;13.416;2023-08-12T09:07:57;101351.64;;;24.80;60.62
74790;BME280;63318;52.406;13.416;2023-08-12T09:10:27;101350.31;;;24.82;60.09
74790;BME280;63318;52.406;13.416;2023-08-12T09:12:56;101348.61;;;24.86;60.14
74790;BME280;63318;52.406;13.416;2023-08-12T09:15:24;101337.87;;;24.92;59.97
74790;BME280;63318;52.406;13.416;2023-08-12T09:17:53;101331.42;;;25.06;59.49
74790;BME280;63318;52.406;13.416;2023-08-12T09:20:21;101333.09;;;25.22;59.26
74790;BME280;63318;52.406;13.416;2023-08-12T09:22:56;101338.77;;;25.37;59.45
74790;BME280;63318;52.406;13.416;2023-08-12T09:25:26;101340.57;;;25.59;58.96
74790;BME280;63318;52.406;13.416;2023-08-12T09:27:58;101337.67;;;25.84;58.40
74790;BME280;63318;52.406;13.416;2023-08-12T09:30:29;101330.14;;;26.13;58.26
74790;BME280;63318;52.406;13.416;2023-08-12T09:33:01;101325.56;;;26.46;57.89
74790;BME280;63318;52.406;13.416;2023-08-12T09:35:35;101321.71;;;26.68;57.18
74790;BME280;63318;52.406;13.416;2023-08-12T09:38:05;101322.52;;;26.84;56.79
74790;BME280;63318;52.406;13.416;2023-08-12T09:40:34;101315.80;;;26.93;55.98
74790;BME280;63318;52.406;13.416;2023-08-12T09:43:04;101316.06;;;26.97;56.06
74790;BME280;63318;52.406;13.416;2023-08-12T09:45:33;101315.72;;;26.99;55.77
74790;BME280;63318;52.406;13.416;2023-08-12T09:48:02;101314.91;;;27.00;55.80
74790;BME280;63318;52.406;13.416;2023-08-12T09:50:31;101311.33;;;27.00;55.88
74790;BME280;63318;52.406;13.416;2023-08-12T09:52:59;101311.95;;;26.98;55.85
74790;BME280;63318;52.406;13.416;2023-08-12T09:55:27;101311.86;;;26.98;55.82
74790;BME280;63318;52.406;13.416;2023-08-12T09:57:56;101312.06;;;27.03;56.44
74790;BME280;63318;52.406;13.416;2023-08-12T10:00:27;101314.14;;;27.12;56.20
74790;BME280;63318;52.406;13.416;2023-08-12T10:02:55;101312.30;;;27.21;56.02
74790;BME280;63318;52.406;13.416;2023-08-12T10:05:27;101309.33;;;27.30;55.66
74790;BME280;63318;52.406;13.416;2023-08-12T10:07:56;101307.84;;;27.38;55.42
74790;BME280;63318;52.406;13.416;2023-08-12T10:10:25;101301.19;;;27.47;55.53
74790;BME280;63318;52.406;13.416;2023-08-12T10:12:53;101299.55;;;27.54;55.23
74790;BME280;63318;52.406;13.416;2023-08-12T10:15:22;101303.07;;;27.59;55.35
74790;BME280;63318;52.406;13.416;2023-08-12T10:17:52;101293.34;;;27.58;54.99
74790;BME280;63318;52.406;13.416;2023-08-12T10:20:22;101289.39;;;27.56;54.68
74790;BME280;63318;52.406;13.416;2023-08-12T10:22:52;101284.37;;;27.54;54.82
74790;BME280;63318;52.406;13.416;2023-08-12T10:25:21;101283.81;;;27.51;55.31
74790;BME280;63318;52.406;13.416;2023-08-12T10:27:49;101283.20;;;27.49;55.15
74790;BME280;63318;52.406;13.416;2023-08-12T10:30:20;101276.03;;;27.45;55.37
74790;BME280;63318;52.406;13.416;2023-08-12T10:32:48;101279.16;;;27.42;55.72
74790;BME280;63318;52.406;13.416;2023-08-12T10:35:17;101275.34;;;27.39;55.95
74790;BME280;63318;52.406;13.416;2023-08-12T10:37:49;101269.17;;;27.38;55.75
74790;BME280;63318;52.406;13.416;2023-08-12T10:40:22;101265.77;;;27.36;55.49
74790;BME280;63318;52.406;13.416;2023-08-12T10:42:51;101258.73;;;27.35;55.89
74790;BME280;63318;52.406;13.416;2023-08-12T10:45:19;101257.30;;;27.36;56.37
74790;BME280;63318;52.406;13.416;2023-08-12T10:47:53;101272.38;;;27.35;56.49
74790;BME280;63318;52.406;13.416;2023-08-12T10:50:39;101282.94;;;27.34;57.29
74790;BME280;63318;52.406;13.416;2023-08-12T10:53:24;101286.16;;;27.33;57.23
74790;BME280;63318;52.406;13.416;2023-08-12T10:55:56;101285.02;;;27.33;57.02
74790;BME280;63318;52.406;13.416;2023-08-12T10:58:29;101282.14;;;27.34;57.15
74790;BME280;63318;52.406;13.416;2023-08-12T11:00:59;101277.31;;;27.37;56.95
74790;BME280;63318;52.406;13.416;2023-08-12T11:03:27;101269.70;;;27.39;56.90
74790;BME280;63318;52.406;13.416;2023-08-12T11:06:01;101264.84;;;27.40;56.70
74790;BME280;63318;52.406;13.416;2023-08-12T11:08:30;101265.83;;;27.37;56.50
74790;BME280;63318;52.406;13.416;2023-08-12T11:10:59;101264.52;;;27.35;56.59
74790;BME280;63318;52.406;13.416;2023-08-12T11:13:30;101265.27;;;27.32;57.11
74790;BME280;63318;52.406;13.416;2023-08-12T11:16:09;101268.70;;;27.28;56.56
74790;BME280;63318;52.406;13.416;2023-08-12T11:18:37;101266.39;;;27.24;56.08
74790;BME280;63318;52.406;13.416;2023-08-12T11:21:05;101264.34;;;27.20;56.06
74790;BME280;63318;52.406;13.416;2023-08-12T11:23:34;101262.33;;;27.17;56.62
74790;BME280;63318;52.406;13.416;2023-08-12T11:26:04;101259.19;;;27.15;56.11
74790;BME280;63318;52.406;13.416;2023-08-12T11:28:32;101264.14;;;27.11;56.53
74790;BME280;63318;52.406;13.416;2023-08-12T11:31:02;101276.13;;;27.07;56.52
74790;BME280;63318;52.406;13.416;2023-08-12T11:33:31;101278.20;;;27.02;56.47
74790;BME280;63318;52.406;13.416;2023-08-12T11:36:00;101280.27;;;26.95;56.70
74790;BME280;63318;52.406;13.416;2023-08-12T11:38:28;101279.09;;;26.87;56.55
74790;BME280;63318;52.406;13.416;2023-08-12T11:40:56;101282.23;;;26.79;56.72
74790;BME280;63318;52.406;13.416;2023-08-12T11:43:25;101289.02;;;26.71;57.08
74790;BME280;63318;52.406;13.416;2023-08-12T11:45:56;101283.27;;;26.63;57.37
74790;BME280;63318;52.406;13.416;2023-08-12T11:48:24;101286.94;;;26.57;57.52
74790;BME280;63318;52.406;13.416;2023-08-12T11:50:53;101285.67;;;26.49;57.72
74790;BME280;63318;52.406;13.416;2023-08-12T11:53:21;101286.64;;;26.42;58.08
74790;BME280;63318;52.406;13.416;2023-08-12T11:55:50;101286.37;;;26.38;58.29
74790;BME280;63318;52.406;13.416;2023-08-12T11:58:19;101280.45;;;26.33;57.93
74790;BME280;63318;52.406;13.416;2023-08-12T12:00:47;101272.91;;;26.28;58.17
74790;BME280;63318;52.406;13.416;2023-08-12T12:03:17;101278.15;;;26.26;58.61
74790;BME280;63318;52.406;13.416;2023-08-12T12:05:47;101277.42;;;26.26;58.65
74790;BME280;63318;52.406;13.416;2023-08-12T12:08:16;101277.94;;;26.27;58.69
74790;BME280;63318;52.406;13.416;2023-08-12T12:10:44;101280.51;;;26.26;58.48
74790;BME280;63318;52.406;13.416;2023-08-12T12:13:12;101278.34;;;26.24;58.72
74790;BME280;63318;52.406;13.416;2023-08-12T12:15:42;101278.84;;;26.21;58.58
74790;BME280;63318;52.406;13.416;2023-08-12T12:18:12;101278.14;;;26.19;58.49
74790;BME280;63318;52.406;13.416;2023-08-12T12:20:55;101281.12;;;26.15;58.54
74790;BME280;63318;52.406;13.416;2023-08-12T12:23:28;101278.00;;;26.08;58.28
74790;BME280;63318;52.406;13.416;2023-08-12T12:26:00;101278.98;;;26.03;58.61
74790;BME280;63318;52.406;13.416;2023-08-12T12:28:27;101266.29;;;26.00;59.17
74790;BME280;63318;52.406;13.416;2023-08-12T12:30:55;101259.52;;;25.97;59.35
74790;BME280;63318;52.406;13.416;2023-08-12T12:33:23;101250.85;;;25.95;59.54
74790;BME280;63318;52.406;13.416;2023-08-12T12:35:51;101231.56;;;25.92;59.36
74790;BME280;63318;52.406;13.416;2023-08-12T12:38:20;101205.61;;;25.89;59.24
74790;BME280;63318;52.406;13.416;2023-08-12T12:40:48;101190.81;;;25.87;59.12
74790;BME280;63318;52.406;13.416;2023-08-12T12:43:16;101174.60;;;25.85;59.44
74790;BME280;63318;52.406;13.416;2023-08-12T12:45:45;101174.67;;;25.85;59.35
74790;BME280;63318;52.406;13.416;2023-08-12T12:48:13;101175.49;;;25.86;59.69